If you wish to contribute or participate in the discussions about articles you are invited to join SKYbrary as a registered user

 Actions

Florø

From SKYbrary Wiki

ENFL
Airport
ICAO: ENFL
Summary
Name Florø
Region Europe
Territory Norway NO.gif
Location Florø, Sogn og Fjordane
Serving
Coordinates 61° 34' 59.19" N, 5° 1' 20.78" E
Runways
Designator Length Width Surface ROPS
7/25 1199 m3,933.727 ft
30 m98.425 ft
ASP /


METAR
Observation ENFL 201320Z 24016KT 9999 VCSH SCT019 BKN047 14/10 Q1011
Station Floro
Date/Time 20 August 2019 13:20:00
Wind direction 240°
Wind speed 16 kts
Lowest cloud amount scattered clouds
Temperature 14°C
Dew point 10°C
Humidity 76%
QNH 1011 hPa
Weather condition in vicinity: showers

BS
Tag(s) Non Avian Wildlife Hazards to Aircraft
WX
Tag(s) Low Level Turbulence

Florø Airport

ICAO: ENFL IATA: FRO

Description

Airport serving the city of Florø, western Norway. The airport also has a heliport, used to transport personnel to oil platforms in the North Sea.

Climatology

Temperate Marine climate/Oceanic climate (Köppen climate classification Cfb). Moderately cool summer and comparatively warm winter with a temperature range of only 14°C57.2 °F
287.15 K
516.87 °R
.

Maps

Terrain

Loading map...

Airport Layout

Loading map...



Accidents & Serious Incidents at or in vicinity of ENFL

None on SKYbrary